createdAt,value
2023-03-21T00:01:16.643Z,4.55
2023-03-21T00:03:46.982Z,4.90
2023-03-21T00:06:15.528Z,5.07
2023-03-21T00:08:44.819Z,4.20
2023-03-21T00:11:14.333Z,4.97
2023-03-21T00:13:43.619Z,5.25
2023-03-21T00:16:19.127Z,5.30
2023-03-21T00:18:59.031Z,4.88
2023-03-21T00:21:48.806Z,5.70
2023-03-21T00:24:23.034Z,4.30
2023-03-21T00:26:51.975Z,4.85
2023-03-21T00:29:20.263Z,4.40
2023-03-21T00:31:48.492Z,5.00
2023-03-21T00:34:22.759Z,5.20
2023-03-21T00:37:01.792Z,5.63
2023-03-21T00:39:30.083Z,5.97
2023-03-21T00:41:58.337Z,5.03
2023-03-21T00:44:26.663Z,5.65
2023-03-21T00:47:06.500Z,5.30
2023-03-21T00:49:38.644Z,5.68
2023-03-21T00:52:17.198Z,5.72
2023-03-21T00:54:51.243Z,5.53
2023-03-21T00:57:20.388Z,4.88
2023-03-21T00:59:50.504Z,4.95
2023-03-21T01:02:23.349Z,5.47
2023-03-21T01:04:53.363Z,4.68
2023-03-21T01:07:22.052Z,5.20
2023-03-21T01:09:51.004Z,5.22
2023-03-21T01:12:19.449Z,4.85
2023-03-21T01:14:47.877Z,4.72
2023-03-21T01:17:16.248Z,3.90
2023-03-21T01:19:51.482Z,4.80
2023-03-21T01:22:22.448Z,4.97
2023-03-21T01:24:55.547Z,3.55
2023-03-21T01:27:26.734Z,3.97
2023-03-21T01:29:55.090Z,3.67
2023-03-21T01:32:23.412Z,3.17
2023-03-21T01:34:51.803Z,2.80
2023-03-21T01:37:21.622Z,2.50
2023-03-21T01:39:49.996Z,2.50
2023-03-21T01:42:18.369Z,2.05
2023-03-21T01:44:58.059Z,2.60
2023-03-21T01:47:26.810Z,2.63
2023-03-21T01:49:59.000Z,2.63
2023-03-21T01:52:37.026Z,2.35
2023-03-21T01:55:12.170Z,1.98
2023-03-21T01:57:55.148Z,2.85
2023-03-21T02:00:29.672Z,3.03
2023-03-21T02:03:11.165Z,2.72
2023-03-21T02:05:50.616Z,2.13
2023-03-21T02:08:22.281Z,2.80
2023-03-21T02:10:53.114Z,2.63
2023-03-21T02:13:21.789Z,2.53
2023-03-21T02:16:00.356Z,2.20
2023-03-21T02:18:37.005Z,3.38
2023-03-21T02:21:46.741Z,2.67
2023-03-21T02:24:48.857Z,2.20
2023-03-21T02:27:22.062Z,2.88
2023-03-21T02:30:26.446Z,2.90
2023-03-21T02:33:20.498Z,2.72
2023-03-21T02:36:13.534Z,3.55
2023-03-21T02:38:54.351Z,2.50
2023-03-21T02:41:40.152Z,2.78
2023-03-21T02:44:16.251Z,3.13
2023-03-21T02:47:02.934Z,3.20
2023-03-21T02:49:42.058Z,3.35
2023-03-21T02:52:18.757Z,2.78
2023-03-21T02:54:52.113Z,2.80
2023-03-21T02:57:22.812Z,2.70
2023-03-21T02:59:56.854Z,2.85
2023-03-21T03:02:30.972Z,3.08
2023-03-21T03:05:00.798Z,2.55
2023-03-21T03:07:40.902Z,3.50
2023-03-21T03:10:32.912Z,3.20
2023-03-21T03:13:15.103Z,3.40
2023-03-21T03:15:50.720Z,3.25
2023-03-21T03:18:28.219Z,2.92
2023-03-21T03:21:06.275Z,3.50
2023-03-21T03:23:39.074Z,2.70
2023-03-21T03:26:14.073Z,3.38
2023-03-21T03:28:47.474Z,3.58
2023-03-21T03:31:22.090Z,3.38
2023-03-21T03:33:53.565Z,3.58
2023-03-21T03:36:32.227Z,3.75
2023-03-21T03:39:05.387Z,4.50
2023-03-21T03:42:04.260Z,4.05
2023-03-21T03:44:28.724Z,4.20
2023-03-21T03:47:02.486Z,3.88
2023-03-21T03:49:34.631Z,4.70
2023-03-21T03:52:09.949Z,4.07
2023-03-21T03:54:41.345Z,3.75
2023-03-21T03:57:12.571Z,4.68
2023-03-21T03:59:42.292Z,3.83
2023-03-21T04:02:10.959Z,4.53
2023-03-21T04:04:39.598Z,4.00
2023-03-21T04:07:07.924Z,4.30
2023-03-21T04:09:44.164Z,4.38
2023-03-21T04:12:14.960Z,4.97
2023-03-21T04:14:46.956Z,4.50
2023-03-21T04:17:15.795Z,4.03
2023-03-21T04:19:45.623Z,3.80
2023-03-21T04:22:14.392Z,3.85
2023-03-21T04:24:42.984Z,4.22
2023-03-21T04:27:11.561Z,4.07
2023-03-21T04:29:41.470Z,4.32
2023-03-21T04:32:16.493Z,4.78
2023-03-21T04:34:50.315Z,3.47
2023-03-21T04:37:19.367Z,3.92
2023-03-21T04:39:48.124Z,3.70
2023-03-21T04:42:18.613Z,3.97
2023-03-21T04:44:48.845Z,3.97
2023-03-21T04:47:20.496Z,4.65
2023-03-21T04:49:49.410Z,4.47
2023-03-21T04:52:18.079Z,3.70
2023-03-21T04:54:46.385Z,3.50
2023-03-21T04:57:14.862Z,4.20
2023-03-21T04:59:43.348Z,3.58
2023-03-21T05:02:13.431Z,3.83
2023-03-21T05:04:42.263Z,4.10
2023-03-21T05:07:10.621Z,4.10
2023-03-21T05:09:39.303Z,4.97
2023-03-21T05:12:07.891Z,4.45
2023-03-21T05:14:36.204Z,3.90
2023-03-21T05:17:05.664Z,5.20
2023-03-21T05:19:40.840Z,3.97
2023-03-21T05:22:12.193Z,4.38
2023-03-21T05:24:42.074Z,3.83
2023-03-21T05:27:10.608Z,3.85
2023-03-21T05:29:38.845Z,3.67
2023-03-21T05:32:07.417Z,3.67
2023-03-21T05:34:37.339Z,3.80
2023-03-21T05:37:05.528Z,4.68
2023-03-21T05:39:33.838Z,5.03
2023-03-21T05:42:02.191Z,4.85
2023-03-21T05:44:30.428Z,4.10
2023-03-21T05:46:58.770Z,3.97
2023-03-21T05:49:27.153Z,4.90
2023-03-21T05:51:56.998Z,4.35
2023-03-21T05:54:25.433Z,4.65
2023-03-21T05:56:53.725Z,4.68
2023-03-21T05:59:22.185Z,5.35
2023-03-21T06:01:50.460Z,4.20
2023-03-21T06:04:21.496Z,4.13
2023-03-21T06:06:51.021Z,5.05
2023-03-21T06:09:20.804Z,3.95
2023-03-21T06:11:50.835Z,5.47
2023-03-21T06:14:19.563Z,4.97
2023-03-21T06:16:47.953Z,4.80
2023-03-21T06:19:16.583Z,6.22
2023-03-21T06:21:44.810Z,5.20
2023-03-21T06:24:13.656Z,4.45
2023-03-21T06:26:43.719Z,4.30
2023-03-21T06:29:15.677Z,5.03
2023-03-21T06:31:44.051Z,5.22
2023-03-21T06:34:12.362Z,4.50
2023-03-21T06:36:41.124Z,4.47
2023-03-21T06:39:10.690Z,4.38
2023-03-21T06:41:39.311Z,4.35
2023-03-21T06:44:09.101Z,5.68
2023-03-21T06:46:37.404Z,4.22
2023-03-21T06:49:05.860Z,5.15
2023-03-21T06:51:34.039Z,4.10
2023-03-21T06:54:02.302Z,4.05
2023-03-21T06:56:30.855Z,4.57
2023-03-21T06:58:59.088Z,4.20
2023-03-21T07:01:30.751Z,4.10
2023-03-21T07:03:59.751Z,4.47
2023-03-21T07:06:28.742Z,4.03
2023-03-21T07:08:57.611Z,4.07
2023-03-21T07:11:27.107Z,4.07
2023-03-21T07:13:55.708Z,3.95
2023-03-21T07:16:25.076Z,3.88
2023-03-21T07:18:54.978Z,3.58
2023-03-21T07:21:23.424Z,3.97
2023-03-21T07:23:51.680Z,4.13
2023-03-21T07:26:19.975Z,3.70
2023-03-21T07:28:48.367Z,3.55
2023-03-21T07:31:19.790Z,3.20
2023-03-21T07:33:48.083Z,3.00
2023-03-21T07:36:17.959Z,3.40
2023-03-21T07:38:47.294Z,3.70
2023-03-21T07:43:44.764Z,3.10
2023-03-21T07:46:12.999Z,3.40
2023-03-21T07:48:41.416Z,3.97
2023-03-21T07:51:09.927Z,2.83
2023-03-21T07:53:42.020Z,3.03
2023-03-21T07:56:11.107Z,2.78
2023-03-21T07:58:39.341Z,2.95
2023-03-21T08:01:07.953Z,3.67
2023-03-21T08:03:36.260Z,4.00
2023-03-21T08:06:04.610Z,2.75
2023-03-21T08:08:33.731Z,3.05
2023-03-21T08:11:05.172Z,2.97
2023-03-21T08:13:33.569Z,3.40
2023-03-21T08:16:01.910Z,2.92
2023-03-21T08:18:30.557Z,3.35
2023-03-21T08:20:59.798Z,3.08
2023-03-21T08:23:28.140Z,3.50
2023-03-21T08:25:56.856Z,3.50
2023-03-21T08:28:26.576Z,3.13
2023-03-21T08:30:54.763Z,2.85
2023-03-21T08:33:23.288Z,3.38
2023-03-21T08:35:51.664Z,4.50
2023-03-21T08:38:19.978Z,3.35
2023-03-21T08:40:48.270Z,3.72
2023-03-21T08:43:18.160Z,3.15
2023-03-21T08:45:47.844Z,3.85
2023-03-21T08:48:16.305Z,3.50
2023-03-21T08:50:47.541Z,3.63
2023-03-21T08:53:15.970Z,3.92
2023-03-21T08:55:45.398Z,3.55
2023-03-21T08:58:13.849Z,3.53
2023-03-21T09:00:42.124Z,4.03
2023-03-21T09:03:11.883Z,3.90
2023-03-21T09:05:40.331Z,3.70
2023-03-21T09:08:08.751Z,4.30
2023-03-21T09:10:36.969Z,3.72
2023-03-21T09:13:05.228Z,3.83
2023-03-21T09:15:35.564Z,4.28
2023-03-21T09:18:13.556Z,3.60
2023-03-21T09:20:45.208Z,3.65
2023-03-21T09:23:14.648Z,3.45
2023-03-21T09:25:43.623Z,3.78
2023-03-21T09:28:16.640Z,3.50
2023-03-21T09:30:45.627Z,3.17
2023-03-21T09:33:21.374Z,3.67
2023-03-21T09:35:52.211Z,3.17
2023-03-21T09:38:20.958Z,3.67
2023-03-21T09:58:59.571Z,3.38
2023-03-21T10:01:33.229Z,3.28
2023-03-21T10:24:35.478Z,2.95
2023-03-21T10:29:43.486Z,3.10
2023-03-21T10:32:13.058Z,2.85
2023-03-21T10:34:43.638Z,3.28
2023-03-21T10:37:14.228Z,3.08
2023-03-21T10:39:44.304Z,3.78
2023-03-21T10:42:21.668Z,3.47
2023-03-21T18:23:20.187Z,4.10
2023-03-21T18:33:40.510Z,4.30
2023-03-21T18:36:09.889Z,5.70
2023-03-21T18:38:38.655Z,3.95
2023-03-21T18:41:09.856Z,4.60
2023-03-21T18:44:02.685Z,4.63
2023-03-21T18:46:27.437Z,5.10
2023-03-21T18:48:55.822Z,5.75
2023-03-21T18:51:24.292Z,7.85
2023-03-21T18:53:52.818Z,7.32
2023-03-21T18:57:19.571Z,6.28
2023-03-21T18:59:14.121Z,10.18
2023-03-21T19:01:42.479Z,9.18
2023-03-21T19:04:23.149Z,8.02
2023-03-21T19:06:57.750Z,5.50
2023-03-21T19:09:31.356Z,4.90
2023-03-21T19:12:02.006Z,5.60
2023-03-21T19:14:31.623Z,5.03
2023-03-21T19:17:55.728Z,6.30
2023-03-21T19:19:48.395Z,5.90
2023-03-21T19:22:16.765Z,6.45
2023-03-21T19:24:47.105Z,5.38
2023-03-21T19:27:19.838Z,5.15
2023-03-21T19:30:02.976Z,4.78
2023-03-21T19:32:36.601Z,3.63
2023-03-21T19:35:05.135Z,4.28
2023-03-21T19:37:35.199Z,5.35
2023-03-21T19:40:06.418Z,5.35
2023-03-21T19:42:37.031Z,5.20
2023-03-21T19:45:06.310Z,6.45
2023-03-21T19:47:34.734Z,7.55
2023-03-21T19:52:51.383Z,5.88
2023-03-21T19:55:19.938Z,6.30
2023-03-21T19:57:49.681Z,5.78
2023-03-21T20:00:18.979Z,5.38
2023-03-21T20:02:47.818Z,5.43
2023-03-21T20:05:17.903Z,5.35
2023-03-21T20:07:46.244Z,4.72
2023-03-21T20:10:14.730Z,4.75
2023-03-21T20:12:43.138Z,4.43
2023-03-21T20:15:19.287Z,3.80
2023-03-21T20:17:49.353Z,3.70
2023-03-21T20:20:18.449Z,3.70
2023-03-21T20:23:07.863Z,2.78
2023-03-21T20:25:37.288Z,2.75
2023-03-21T20:28:15.927Z,2.65
2023-03-21T20:30:53.092Z,2.97
2023-03-21T20:33:21.814Z,2.92
2023-03-21T20:38:40.189Z,2.03
2023-03-21T20:41:08.624Z,2.55
2023-03-21T20:44:24.379Z,2.92
2023-03-21T20:46:26.710Z,2.30
2023-03-21T20:48:55.244Z,2.88
2023-03-21T20:54:12.786Z,3.05
2023-03-21T20:56:41.715Z,2.97
2023-03-21T20:59:23.243Z,3.17
2023-03-21T21:01:55.902Z,2.70
2023-03-21T21:04:41.286Z,3.05
2023-03-21T21:07:16.215Z,3.88
2023-03-21T21:09:44.765Z,3.78
2023-03-21T21:12:14.390Z,3.88
2023-03-21T21:14:43.881Z,4.22
2023-03-21T21:20:02.993Z,4.13
2023-03-21T21:22:31.831Z,3.80
2023-03-21T21:25:00.087Z,3.58
2023-03-21T21:27:28.630Z,3.67
2023-03-21T21:29:57.720Z,4.05
2023-03-21T21:32:27.475Z,3.40
2023-03-21T21:34:56.235Z,3.67
2023-03-21T21:37:25.241Z,3.97
2023-03-21T21:39:54.165Z,3.05
2023-03-21T21:42:22.488Z,3.60
2023-03-21T21:44:50.768Z,3.55
2023-03-21T21:47:19.006Z,3.80
2023-03-21T21:49:49.021Z,3.78
2023-03-21T21:52:22.041Z,3.10
2023-03-21T21:54:50.663Z,3.75
2023-03-21T21:57:19.954Z,3.65
2023-03-21T21:59:48.468Z,3.17
2023-03-21T22:02:16.927Z,4.15
2023-03-21T22:04:45.164Z,3.50
2023-03-21T22:07:15.362Z,3.83
2023-03-21T22:09:44.527Z,3.60
2023-03-21T22:12:12.982Z,3.97
2023-03-21T22:14:41.174Z,3.20
2023-03-21T22:17:09.783Z,3.15
2023-03-21T22:19:40.181Z,3.20
2023-03-21T22:22:08.788Z,3.65
2023-03-21T22:24:38.635Z,3.88
2023-03-21T22:27:06.760Z,3.00
2023-03-21T22:29:35.068Z,3.83
2023-03-21T22:32:03.391Z,3.38
2023-03-21T22:34:31.686Z,3.45
2023-03-21T22:36:59.996Z,3.53
2023-03-21T22:39:28.754Z,2.95
2023-03-21T22:42:01.083Z,3.42
2023-03-21T22:44:34.585Z,3.35
2023-03-21T22:47:03.427Z,4.40
2023-03-21T22:49:32.510Z,4.13
2023-03-21T22:52:01.524Z,4.80
2023-03-21T22:54:30.044Z,4.50
2023-03-21T22:57:00.146Z,3.88
2023-03-21T22:59:29.162Z,5.32
2023-03-21T23:01:58.105Z,4.63
2023-03-21T23:04:27.429Z,5.22
2023-03-21T23:06:55.789Z,4.93
2023-03-21T23:09:24.196Z,4.75
2023-03-21T23:11:52.541Z,5.15
2023-03-21T23:14:22.904Z,4.15
2023-03-21T23:16:53.635Z,4.78
2023-03-21T23:19:25.497Z,4.75
2023-03-21T23:21:53.794Z,3.90
2023-03-21T23:24:22.201Z,4.35
2023-03-21T23:26:50.519Z,4.75
2023-03-21T23:29:18.837Z,3.95
2023-03-21T23:31:48.632Z,3.67
2023-03-21T23:34:20.826Z,3.60
2023-03-21T23:36:49.644Z,3.53
2023-03-21T23:39:18.966Z,3.50
2023-03-21T23:41:47.288Z,3.40
2023-03-21T23:44:16.317Z,3.08
2023-03-21T23:46:44.525Z,3.67
2023-03-21T23:49:15.189Z,3.83
2023-03-21T23:51:43.607Z,3.67
2023-03-21T23:54:12.070Z,3.58
2023-03-21T23:56:40.737Z,3.83
2023-03-21T23:59:09.403Z,3.92
